weather.gov     
National Weather Service

Terminal Aerodrome Forecast
NWS Homepage
This page is being discontinued on March 12, 2014.
The same data is available at this site. Please update your bookmarks.
Thank you, and we apologize for the inconvenience.
Please send an email to SR-SRH.Webmaster@noaa.gov with any concerns.


Current Version
Previous Version:    01  02  03  04  05  06  07  08  09  10  11  12  13  14  15  16  17  18  19  20  21  22  23  24  25  26  27  28  29  30  
   31  32  33  34  35  36  37  
[Printable]
576
FTUS41 KCLE 290500
TAFYNG
TAF
KYNG 290528Z 2906/3006 15007KT P6SM BKN150 OVC250
     FM291300 15008KT P6SM OVC080
     FM291500 16011KT P6SM VCSH OVC045
      TEMPO 2916/2918 6SM -RASN BR OVC025
     FM291800 19014G20KT 2SM -RA BR OVC007
     FM292000 20011KT 1 1/2SM -SN BR OVC007
     FM292300 25013KT 2SM -SN BR OVC007
     FM300400 28011KT 4SM -SN BR OVC007=


U.S. Dept. of Commerce
NOAA National Weather Service
1325 East West Highway
Silver Spring, MD 20910
E-mail: w-nws.webmaster@noaa.gov
Page last modified: May 16, 2007
NATIONAL WEATHER SERVICE: for Safety, for Work, for Fun - FOR LIFE